createdAt,value
2018-09-24T00:04:41.424Z,101033.17
2018-09-24T00:09:34.080Z,101037.12
2018-09-24T00:14:26.980Z,101056.55
2018-09-24T00:19:19.705Z,101048.27
2018-09-24T00:24:12.332Z,101061.94
2018-09-24T00:29:05.057Z,101073.12
2018-09-24T00:33:57.721Z,101090.55
2018-09-24T00:38:50.357Z,101091.48
2018-09-24T00:43:42.991Z,101094.08
2018-09-24T00:48:35.814Z,101116.84
2018-09-24T00:53:28.535Z,101120.48
2018-09-24T00:58:21.148Z,101133.09
2018-09-24T01:03:13.744Z,101138.59
2018-09-24T01:08:06.416Z,101144.48
2018-09-24T01:12:58.984Z,101158.59
2018-09-24T01:17:51.736Z,101158.39
2018-09-24T01:22:44.345Z,101174.94
2018-09-24T01:27:37.033Z,101186.87
2018-09-24T01:32:29.848Z,101198.76
2018-09-24T01:37:22.429Z,101201.48
2018-09-24T01:42:15.054Z,101220.81
2018-09-24T01:47:07.756Z,101224.73
2018-09-24T01:52:00.392Z,101229.08
2018-09-24T01:56:53.005Z,101240.23
2018-09-24T02:01:45.596Z,101247.72
2018-09-24T02:06:38.201Z,101263.22
2018-09-24T02:11:30.791Z,101276.34
2018-09-24T02:16:23.377Z,101282.45
2018-09-24T02:21:16.171Z,101286.69
2018-09-24T02:26:09.759Z,101293.19
2018-09-24T02:31:02.460Z,101302.20
2018-09-24T02:35:55.141Z,101300.94
2018-09-24T02:40:47.783Z,101322.95
2018-09-24T02:45:40.376Z,101329.35
2018-09-24T02:50:36.864Z,101334.22
2018-09-24T02:55:29.464Z,101335.45
2018-09-24T03:00:22.337Z,101342.56
2018-09-24T03:05:14.949Z,101359.30
2018-09-24T03:10:07.541Z,101369.31
2018-09-24T03:15:00.137Z,101368.28
2018-09-24T03:19:52.752Z,101383.56
2018-09-24T03:24:45.351Z,101387.08
2018-09-24T03:29:38.323Z,101392.88
2018-09-24T03:34:30.880Z,101396.91
2018-09-24T03:39:23.567Z,101397.42
2018-09-24T03:44:16.191Z,101406.47
2018-09-24T03:49:09.316Z,101410.17
2018-09-24T03:54:01.875Z,101407.56
2018-09-24T03:58:54.467Z,101428.22
2018-09-24T04:03:47.072Z,101417.07
2018-09-24T04:08:45.580Z,101439.06
2018-09-24T04:13:44.136Z,101443.60
2018-09-24T04:18:42.513Z,101437.59
2018-09-24T04:23:40.815Z,101442.21
2018-09-24T04:28:39.353Z,101446.98
2018-09-24T04:33:37.853Z,101460.59
2018-09-24T04:38:36.363Z,101453.44
2018-09-24T04:43:34.735Z,101459.71
2018-09-24T04:48:33.328Z,101471.37
2018-09-24T04:53:31.872Z,101481.98
2018-09-24T04:58:30.200Z,101478.59
2018-09-24T05:03:28.631Z,101477.58
2018-09-24T05:08:28.241Z,101488.31
2018-09-24T05:13:27.061Z,101489.84
2018-09-24T05:18:25.576Z,101493.17
2018-09-24T05:23:24.215Z,101495.53
2018-09-24T05:28:22.744Z,101487.48
2018-09-24T05:33:21.517Z,101503.39
2018-09-24T05:38:20.037Z,101511.03
2018-09-24T05:43:18.414Z,101521.45
2018-09-24T05:48:16.796Z,101525.47
2018-09-24T05:53:15.362Z,101530.33
2018-09-24T05:58:13.701Z,101542.63
2018-09-24T06:03:12.256Z,101562.34
2018-09-24T06:08:10.837Z,101573.72
2018-09-24T06:13:09.173Z,101572.32
2018-09-24T06:18:07.661Z,101585.97
2018-09-24T06:23:06.161Z,101597.47
2018-09-24T06:28:04.624Z,101605.23
2018-09-24T06:33:02.944Z,101604.38
2018-09-24T06:38:01.468Z,101621.80
2018-09-24T06:42:59.952Z,101617.44
2018-09-24T06:47:58.452Z,101632.97
2018-09-24T06:52:56.712Z,101637.78
2018-09-24T06:57:55.319Z,101640.64
2018-09-24T07:02:53.679Z,101648.03
2018-09-24T07:07:52.106Z,101653.97
2018-09-24T07:12:50.571Z,101668.31
2018-09-24T07:17:49.118Z,101671.02
2018-09-24T07:22:47.588Z,101676.11
2018-09-24T07:27:46.156Z,101684.52
2018-09-24T07:32:44.588Z,101689.41
2018-09-24T07:37:43.091Z,101710.43
2018-09-24T07:42:41.492Z,101718.95
2018-09-24T07:47:39.861Z,101718.52
2018-09-24T07:52:38.400Z,101731.89
2018-09-24T07:57:36.812Z,101733.02
2018-09-24T08:02:35.244Z,101753.42
2018-09-24T08:07:33.914Z,101727.84
2018-09-24T08:12:32.300Z,101759.45
2018-09-24T08:17:30.817Z,101764.34
2018-09-24T08:22:29.185Z,101766.33
2018-09-24T08:27:27.707Z,101781.59
2018-09-24T08:32:25.996Z,101768.90
2018-09-24T08:37:24.609Z,101806.81
2018-09-24T08:42:23.112Z,101805.50
2018-09-24T08:47:21.596Z,101809.09
2018-09-24T08:52:20.152Z,101829.26
2018-09-24T08:57:18.621Z,101828.59
2018-09-24T09:02:17.044Z,101837.27
2018-09-24T09:07:15.424Z,101826.37
2018-09-24T09:12:13.939Z,101841.45
2018-09-24T09:17:12.254Z,101847.02
2018-09-24T09:22:10.847Z,101849.70
2018-09-24T09:27:09.256Z,101862.72
2018-09-24T09:32:07.624Z,101868.13
2018-09-24T09:37:06.035Z,101877.41
2018-09-24T09:42:04.392Z,101879.02
2018-09-24T09:47:02.776Z,101880.40
2018-09-24T09:52:01.308Z,101886.64
2018-09-24T09:56:59.708Z,101887.47
2018-09-24T10:01:58.111Z,101904.89
2018-09-24T10:06:56.608Z,101902.59
2018-09-24T10:11:55.083Z,101898.25
2018-09-24T10:16:53.390Z,101903.06
2018-09-24T10:21:51.910Z,101908.35
2018-09-24T10:26:50.270Z,101914.63
2018-09-24T10:31:48.552Z,101917.00
2018-09-24T10:36:47.040Z,101913.55
2018-09-24T10:41:45.457Z,101919.92
2018-09-24T10:46:43.970Z,101925.47
2018-09-24T10:51:42.451Z,101917.93
2018-09-24T10:56:40.856Z,101918.08
2018-09-24T11:01:39.203Z,101927.98
2018-09-24T11:06:37.637Z,101935.20
2018-09-24T11:11:36.100Z,101938.03
2018-09-24T11:16:35.056Z,101930.19
2018-09-24T11:21:33.421Z,101941.27
2018-09-24T11:31:30.653Z,101969.92
2018-09-24T11:36:29.189Z,102000.69
2018-09-24T11:41:27.731Z,102023.95
2018-09-24T11:46:26.618Z,102012.90
2018-09-24T11:51:25.173Z,102050.61
2018-09-24T11:56:23.501Z,102046.41
2018-09-24T12:01:22.039Z,102043.97
2018-09-24T12:06:23.282Z,102035.58
2018-09-24T12:11:21.900Z,102067.39
2018-09-24T12:16:20.472Z,102091.09
2018-09-24T12:21:19.026Z,102114.84
2018-09-24T12:26:17.568Z,102147.84
2018-09-24T12:31:16.012Z,102139.93
2018-09-24T12:36:14.330Z,102108.89
2018-09-24T12:41:12.812Z,102075.38
2018-09-24T12:46:11.437Z,102073.64
2018-09-24T12:51:09.937Z,102063.03
2018-09-24T12:56:08.328Z,102070.20
2018-09-24T13:01:06.812Z,102059.64
2018-09-24T13:06:05.318Z,102071.23
2018-09-24T13:11:03.887Z,102062.38
2018-09-24T13:16:02.280Z,102078.86
2018-09-24T13:21:00.804Z,102083.38
2018-09-24T13:25:59.144Z,102086.59
2018-09-24T13:30:58.736Z,102050.83
2018-09-24T13:35:57.067Z,102061.97
2018-09-24T13:40:56.809Z,102058.73
2018-09-24T13:45:55.361Z,102061.90
2018-09-24T13:50:53.755Z,102059.97
2018-09-24T13:55:52.029Z,102056.94
2018-09-24T14:00:50.404Z,102054.08
2018-09-24T14:05:48.869Z,102060.70
2018-09-24T14:10:47.324Z,102058.91
2018-09-24T14:15:45.849Z,102058.45
2018-09-24T14:20:44.132Z,102066.22
2018-09-24T14:25:42.516Z,102060.44
2018-09-24T14:30:41.036Z,102076.83
2018-09-24T14:35:39.320Z,102091.84
2018-09-24T14:40:37.696Z,102077.50
2018-09-24T14:45:36.040Z,102101.86
2018-09-24T14:50:34.472Z,102103.05
2018-09-24T14:55:32.871Z,102106.33
2018-09-24T15:00:31.492Z,102103.39
2018-09-24T15:05:30.192Z,102106.61
2018-09-24T15:10:28.815Z,102105.83
2018-09-24T15:15:27.160Z,102104.60
2018-09-24T15:20:25.606Z,102109.99
2018-09-24T15:25:24.048Z,102113.72
2018-09-24T15:30:22.516Z,102117.19
2018-09-24T15:35:21.009Z,102112.58
2018-09-24T15:40:19.494Z,102125.10
2018-09-24T15:45:17.839Z,102122.61
2018-09-24T15:50:16.411Z,102121.37
2018-09-24T15:55:14.914Z,102119.31
2018-09-24T16:00:13.848Z,102109.36
2018-09-24T16:05:12.348Z,102114.99
2018-09-24T16:10:11.416Z,102124.38
2018-09-24T16:15:10.937Z,102135.66
2018-09-24T16:20:09.540Z,102143.16
2018-09-24T16:25:08.008Z,102155.56
2018-09-24T16:30:06.531Z,102154.11
2018-09-24T16:35:05.050Z,102159.88
2018-09-24T16:40:03.436Z,102162.48
2018-09-24T16:45:01.891Z,102162.33
2018-09-24T16:50:00.410Z,102174.23
2018-09-24T16:54:58.727Z,102179.78
2018-09-24T16:59:57.295Z,102178.95
2018-09-24T17:04:55.902Z,102193.34
2018-09-24T17:09:54.359Z,102195.11
2018-09-24T17:14:52.882Z,102202.80
2018-09-24T17:19:51.420Z,102212.70
2018-09-24T17:24:49.941Z,102223.44
2018-09-24T17:29:48.799Z,102239.95
2018-09-24T17:34:47.514Z,102254.09
2018-09-24T17:39:46.211Z,102251.31
2018-09-24T17:44:45.012Z,102257.34
2018-09-24T17:49:44.018Z,102264.63
2018-09-24T17:54:42.701Z,102255.98
2018-09-24T17:59:41.421Z,102261.92
2018-09-24T18:04:40.084Z,102278.59
2018-09-24T18:09:38.891Z,102283.09
2018-09-24T18:14:37.753Z,102289.21
2018-09-24T18:19:36.469Z,102294.07
2018-09-24T18:24:35.105Z,102309.02
2018-09-24T18:29:33.632Z,102319.93
2018-09-24T18:34:32.437Z,102324.38
2018-09-24T18:39:31.116Z,102335.88
2018-09-24T18:44:29.564Z,102348.51
2018-09-24T18:49:27.957Z,102363.66
2018-09-24T18:54:26.436Z,102375.25
2018-09-24T18:59:24.850Z,102379.14
2018-09-24T19:04:23.292Z,102386.52
2018-09-24T19:09:21.778Z,102387.48
2018-09-24T19:14:20.232Z,102392.53
2018-09-24T19:19:18.673Z,102396.55
2018-09-24T19:24:16.992Z,102403.09
2018-09-24T19:29:15.425Z,102406.55
2018-09-24T19:34:13.869Z,102410.52
2018-09-24T19:39:13.848Z,102419.41
2018-09-24T19:44:12.272Z,102432.91
2018-09-24T19:49:10.676Z,102433.05
2018-09-24T19:54:09.134Z,102439.84
2018-09-24T19:59:07.537Z,102436.58
2018-09-24T20:04:05.976Z,102444.48
2018-09-24T20:09:04.599Z,102450.30
2018-09-24T20:14:02.931Z,102454.46
2018-09-24T20:19:01.491Z,102470.16
2018-09-24T20:23:59.916Z,102476.80
2018-09-24T20:28:58.263Z,102472.14
2018-09-24T20:33:56.875Z,102484.52
2018-09-24T20:38:55.304Z,102490.14
2018-09-24T20:43:53.875Z,102489.92
2018-09-24T20:48:52.488Z,102496.44
2018-09-24T20:53:50.900Z,102512.81
2018-09-24T20:58:49.339Z,102518.59
2018-09-24T21:03:47.983Z,102529.57
2018-09-24T21:08:46.516Z,102535.02
2018-09-24T21:13:45.284Z,102541.30
2018-09-24T21:18:43.887Z,102544.56
2018-09-24T21:23:42.472Z,102562.42
2018-09-24T21:28:41.142Z,102551.98
2018-09-24T21:33:40.525Z,102569.17
2018-09-24T21:38:39.567Z,102575.30
2018-09-24T21:43:39.265Z,102576.67
2018-09-24T21:48:38.124Z,102588.86
2018-09-24T21:53:36.512Z,102594.81
2018-09-24T21:58:35.148Z,102595.70
2018-09-24T22:03:33.627Z,102592.70
2018-09-24T22:08:32.117Z,102592.59
2018-09-24T22:13:30.548Z,102607.77
2018-09-24T22:18:28.988Z,102615.85
2018-09-24T22:23:27.224Z,102622.42
2018-09-24T22:28:25.550Z,102627.00
2018-09-24T22:33:23.913Z,102629.53
2018-09-24T22:38:22.413Z,102637.13
2018-09-24T22:43:20.958Z,102643.19
2018-09-24T22:48:19.326Z,102650.28
2018-09-24T22:53:17.802Z,102648.11
2018-09-24T22:58:16.197Z,102661.92
2018-09-24T23:03:14.660Z,102660.27
2018-09-24T23:08:13.157Z,102660.47
2018-09-24T23:13:11.823Z,102660.14
2018-09-24T23:18:10.168Z,102663.34
2018-09-24T23:23:08.448Z,102671.06
2018-09-24T23:28:06.879Z,102675.44
2018-09-24T23:33:05.377Z,102680.47
2018-09-24T23:38:03.792Z,102682.50
2018-09-24T23:43:02.244Z,102680.81
2018-09-24T23:48:00.778Z,102689.89
2018-09-24T23:52:59.248Z,102698.63
2018-09-24T23:57:57.656Z,102705.67
